Time;durP1;ratioP1;P1;durP2;ratioP2;P2;SDS_P1;SDS_P2;PMS_P1;PMS_P2;Temp;Humidity;BMP_temperature;BMP_pressure;BME280_temperature;BME280_humidity;BME280_pressure;Samples;Min_cycle;Max_cycle;Signal;HPM_P1;HPM_P2
2021/07/12 00:02:17;;;;;;;7.45;6.28;;;;;;;18.75;79.57;96467.97;1763607;79;20946;-80
2021/07/12 00:04:43;;;;;;;7.25;6.55;;;;;;;18.73;79.54;96454.23;1793768;79;20915;-80
2021/07/12 00:07:08;;;;;;;6.00;5.40;;;;;;;18.70;79.61;96450.21;1798451;79;20915;-80
2021/07/12 00:09:34;;;;;;;6.85;5.62;;;;;;;18.68;79.69;96451.48;1773358;80;20951;-80
2021/07/12 00:12:01;;;;;;;5.45;4.50;;;;;;;18.65;79.54;96448.00;1780306;80;21044;-80
2021/07/12 00:14:26;;;;;;;6.37;4.30;;;;;;;18.63;79.17;96443.45;1791608;79;21273;-81
2021/07/12 00:16:52;;;;;;;5.42;4.33;;;;;;;18.54;78.76;96435.09;1764624;80;20852;-80
2021/07/12 00:19:18;;;;;;;5.30;4.67;;;;;;;18.42;78.77;96437.75;1789347;78;20896;-80
2021/07/12 00:21:44;;;;;;;5.00;4.50;;;;;;;18.34;78.93;96431.51;1763527;80;20867;-80
2021/07/12 00:24:09;;;;;;;4.75;4.40;;;;;;;18.30;78.87;96433.80;1818704;79;20875;-80
2021/07/12 00:26:35;;;;;;;6.53;4.12;;;;;;;18.30;78.77;96436.95;1814487;79;20933;-80
2021/07/12 00:29:01;;;;;;;5.30;4.80;;;;;;;18.27;78.68;96443.47;1804480;79;20888;-80
2021/07/12 00:31:27;;;;;;;5.53;4.87;;;;;;;18.29;78.67;96444.55;1800301;79;20920;-80
2021/07/12 00:33:52;;;;;;;5.33;4.85;;;;;;;18.26;78.69;96444.50;1798700;79;21176;-80
2021/07/12 00:36:18;;;;;;;6.35;5.00;;;;;;;18.23;78.61;96450.73;1806033;78;20897;-80
2021/07/12 00:38:44;;;;;;;5.33;4.83;;;;;;;18.17;78.66;96446.37;1811310;79;20864;-80
2021/07/12 00:41:09;;;;;;;6.12;5.10;;;;;;;18.11;78.51;96449.92;1790468;79;21325;-80
2021/07/12 00:43:36;;;;;;;5.35;4.85;;;;;;;18.08;78.56;96446.44;1766396;80;21056;-80
2021/07/12 00:46:02;;;;;;;7.25;5.50;;;;;;;18.04;78.80;96451.33;1763776;80;20972;-80
2021/07/12 00:48:28;;;;;;;7.30;5.45;;;;;;;18.03;78.94;96451.55;1762137;80;20937;-80
2021/07/12 00:50:54;;;;;;;6.37;5.78;;;;;;;17.99;79.30;96449.90;1741497;80;20953;-80
2021/07/12 00:53:19;;;;;;;9.03;5.90;;;;;;;17.92;79.53;96451.33;1754857;80;20907;-80
2021/07/12 00:55:48;;;;;;;7.08;5.92;;;;;;;17.90;79.68;96449.95;1794541;79;21225;-80
2021/07/12 00:58:17;;;;;;;5.87;5.25;;;;;;;17.88;79.75;96441.47;1760126;80;20963;-80
2021/07/12 01:00:46;;;;;;;6.28;5.25;;;;;;;17.87;79.79;96440.67;1783550;79;21264;-79
2021/07/12 01:03:12;;;;;;;6.50;5.80;;;;;;;17.88;79.90;96440.16;1765798;80;20963;-79
2021/07/12 01:05:38;;;;;;;6.90;6.05;;;;;;;17.91;79.92;96441.84;1766926;80;20919;-79
2021/07/12 01:08:04;;;;;;;6.67;5.35;;;;;;;17.94;79.81;96440.06;1792332;79;20915;-80
2021/07/12 01:10:31;;;;;;;6.55;5.78;;;;;;;17.97;79.83;96434.87;1765356;80;20981;-80
2021/07/12 01:13:36;;;;;;;7.62;5.90;;;;;;;17.96;79.83;96438.02;1782688;79;20939;-80
2021/07/12 01:16:33;;;;;;;5.25;4.83;;;;;;;17.94;79.89;96442.70;1773055;79;21040;-80
2021/07/12 01:19:27;;;;;;;7.10;5.55;;;;;;;17.96;79.94;96447.21;1776183;80;20984;-80
2021/07/12 01:22:21;;;;;;;6.92;6.28;;;;;;;17.99;79.84;96452.52;1757259;78;20923;-80
2021/07/12 01:25:24;;;;;;;7.53;5.83;;;;;;;18.00;79.98;96453.61;1775310;79;20913;-79
2021/07/12 01:28:19;;;;;;;7.97;5.92;;;;;;;18.05;80.36;96458.70;1778896;79;20937;-79
2021/07/12 01:31:27;;;;;;;6.65;6.12;;;;;;;18.04;80.46;96457.09;1766935;79;20922;-79
2021/07/12 01:34:14;;;;;;;6.42;5.33;;;;;;;17.98;80.48;96448.30;1774538;79;20937;-79
2021/07/12 01:36:54;;;;;;;7.20;5.70;;;;;;;17.95;80.67;96445.61;1774685;79;20974;-79
2021/07/12 01:39:24;;;;;;;6.30;5.70;;;;;;;17.96;80.72;96447.73;1776579;79;20903;-79
2021/07/12 01:42:08;;;;;;;5.65;5.15;;;;;;;17.98;80.79;96442.52;1787283;79;21018;-79
2021/07/12 01:44:46;;;;;;;6.97;5.62;;;;;;;18.00;80.95;96443.09;1771651;79;21006;-79
2021/07/12 01:47:18;;;;;;;6.90;6.05;;;;;;;18.04;80.95;96445.27;1774767;79;20971;-79
2021/07/12 01:50:08;;;;;;;;;;;;;;;18.09;80.93;96448.84;1795516;79;20954;-79
2021/07/12 01:52:58;;;;;;;6.12;5.53;;;;;;;18.13;81.00;96444.72;1774046;79;20374;-79
2021/07/12 01:56:02;;;;;;;5.85;5.25;;;;;;;18.14;80.93;96454.72;1771421;79;20949;-79
2021/07/12 01:58:39;;;;;;;6.15;5.55;;;;;;;18.19;80.96;96461.41;1762737;80;20949;-79
2021/07/12 02:01:05;;;;;;;6.45;5.80;;;;;;;18.15;80.86;96454.48;1775625;79;20928;-79
2021/07/12 02:03:31;;;;;;;6.33;5.58;;;;;;;18.09;80.67;96458.04;1773996;79;20937;-79
2021/07/12 02:05:59;;;;;;;7.40;5.70;;;;;;;18.05;80.64;96456.06;1773424;79;20934;-79
2021/07/12 02:08:25;;;;;;;6.00;5.42;;;;;;;18.00;80.86;96449.67;1779424;79;20919;-79
2021/07/12 02:10:52;;;;;;;5.85;5.25;;;;;;;17.98;80.99;96448.30;1792371;79;20986;-79
2021/07/12 02:13:18;;;;;;;7.25;5.33;;;;;;;17.98;81.20;96453.55;1707704;82;21066;-78
2021/07/12 02:15:46;;;;;;;6.12;5.00;;;;;;;17.99;81.34;96454.64;1760410;80;20970;-78
2021/07/12 02:18:14;;;;;;;5.40;4.85;;;;;;;18.03;81.59;96453.67;1790502;79;21251;-79
2021/07/12 02:20:40;;;;;;;5.85;5.28;;;;;;;18.04;81.69;96451.33;1792177;79;20888;-79
2021/07/12 02:23:06;;;;;;;7.65;6.00;;;;;;;18.06;81.66;96453.23;1798268;79;21231;-79
2021/07/12 02:25:31;;;;;;;5.92;5.35;;;;;;;18.06;81.32;96460.30;1782438;79;20910;-79
2021/07/12 02:27:57;;;;;;;6.33;5.70;;;;;;;18.08;81.35;96466.95;1787667;79;20902;-79
2021/07/12 02:30:23;;;;;;;7.15;6.25;;;;;;;18.11;81.16;96467.02;1791359;79;20888;-79
2021/07/12 02:32:49;;;;;;;6.45;5.85;;;;;;;18.11;81.16;96467.02;1792245;79;20919;-79
2021/07/12 02:35:14;;;;;;;5.40;4.90;;;;;;;18.12;81.21;96464.67;1813197;79;21256;-79
2021/07/12 02:37:43;;;;;;;6.10;4.78;;;;;;;18.14;81.09;96469.19;1816665;79;20891;-79
2021/07/12 02:40:15;;;;;;;5.92;5.33;;;;;;;18.18;81.05;96472.95;1815152;79;20922;-79
2021/07/12 02:42:43;;;;;;;6.40;5.80;;;;;;;18.22;81.11;96476.72;1792648;79;21294;-79
2021/07/12 02:45:08;;;;;;;6.08;5.58;;;;;;;18.27;81.00;96478.18;1775494;79;20994;-79
2021/07/12 02:47:36;;;;;;;6.25;5.65;;;;;;;18.28;80.94;96487.16;1793652;78;21267;-79
2021/07/12 02:50:07;;;;;;;5.92;5.25;;;;;;;18.29;80.85;96488.75;1801145;79;20921;-79
2021/07/12 02:52:44;;;;;;;6.55;5.30;;;;;;;18.27;80.69;96483.44;1812334;78;20947;-79
2021/07/12 02:55:10;;;;;;;6.50;5.90;;;;;;;18.25;80.60;96488.13;1786605;79;20939;-79
2021/07/12 02:57:36;;;;;;;8.25;7.30;;;;;;;18.21;80.57;96492.22;1790043;79;21274;-79
2021/07/12 03:00:05;;;;;;;8.85;6.60;;;;;;;18.17;80.74;96495.82;1792022;79;20987;-79
2021/07/12 03:02:30;;;;;;;7.55;6.78;;;;;;;18.11;80.76;96505.14;1805864;79;20973;-79
2021/07/12 03:04:56;;;;;;;8.28;6.00;;;;;;;18.05;80.81;96504.20;1800118;78;20912;-79
2021/07/12 03:07:26;;;;;;;7.70;6.53;;;;;;;17.99;81.12;96503.80;1804007;79;20899;-79
2021/07/12 03:09:52;;;;;;;9.55;6.17;;;;;;;17.88;81.01;96500.09;1802226;79;20951;-78
2021/07/12 03:12:52;;;;;;;6.67;6.08;;;;;;;17.84;81.15;96504.20;1812369;79;21299;-79
2021/07/12 03:15:20;;;;;;;8.35;6.53;;;;;;;17.80;81.34;96507.52;1778660;79;21348;-79
2021/07/12 03:17:53;;;;;;;8.10;6.28;;;;;;;17.81;81.89;96512.55;1792891;79;20907;-79
2021/07/12 03:20:18;;;;;;;7.65;6.95;;;;;;;17.85;81.94;96511.06;1792659;80;20911;-79
2021/07/12 03:22:48;;;;;;;7.83;6.70;;;;;;;17.88;81.93;96513.23;1797669;79;21266;-78
2021/07/12 03:25:16;;;;;;;8.45;7.42;;;;;;;17.91;82.01;96521.22;1788027;79;20920;-79
2021/07/12 03:27:42;;;;;;;8.13;7.30;;;;;;;17.93;82.23;96521.79;1792256;79;20948;-79
2021/07/12 03:30:10;;;;;;;8.03;7.22;;;;;;;17.96;82.36;96518.19;1788450;79;20941;-79
2021/07/12 03:32:35;;;;;;;8.25;7.45;;;;;;;17.99;82.62;96519.56;1743802;80;20921;-79
2021/07/12 03:35:01;;;;;;;9.33;8.43;;;;;;;18.05;82.95;96521.80;1799616;79;20925;-79
2021/07/12 03:37:27;;;;;;;9.08;8.20;;;;;;;18.10;83.07;96513.55;1800563;79;22126;-79
2021/07/12 03:39:53;;;;;;;8.20;7.45;;;;;;;18.21;83.18;96512.74;1800607;79;20979;-79
2021/07/12 03:42:19;;;;;;;9.38;8.20;;;;;;;18.34;83.19;96505.67;1793277;79;21019;-79
2021/07/12 03:44:46;;;;;;;9.28;8.38;;;;;;;18.43;83.02;96510.39;1793539;79;20910;-79
2021/07/12 03:47:29;;;;;;;9.10;8.30;;;;;;;18.47;83.03;96511.52;1792925;79;21279;-81
2021/07/12 03:50:06;;;;;;;10.45;7.85;;;;;;;18.50;82.70;96515.02;1793752;80;21268;-80
2021/07/12 03:52:34;;;;;;;10.60;7.70;;;;;;;18.59;82.73;96518.92;1792584;79;20923;-80
2021/07/12 03:54:59;;;;;;;7.62;6.92;;;;;;;18.66;82.74;96516.19;1793457;79;21285;-81
2021/07/12 03:57:25;;;;;;;8.20;7.50;;;;;;;18.75;82.66;96516.66;1807489;79;20919;-81
2021/07/12 03:59:51;;;;;;;8.45;7.65;;;;;;;18.80;82.54;96520.20;1791997;79;20914;-79
2021/07/12 04:02:17;;;;;;;8.43;7.62;;;;;;;18.84;82.70;96516.06;1787940;79;20998;-79
2021/07/12 04:04:43;;;;;;;7.12;6.47;;;;;;;18.84;82.63;96516.58;1787533;79;21220;-79
2021/07/12 04:07:08;;;;;;;7.08;6.33;;;;;;;18.84;82.55;96521.33;1805720;79;20918;-79
2021/07/12 04:09:34;;;;;;;6.90;6.20;;;;;;;18.85;82.47;96520.30;1803233;79;20950;-79
2021/07/12 04:12:02;;;;;;;7.65;6.85;;;;;;;18.87;82.49;96520.89;1800657;79;20971;-79
2021/07/12 04:14:27;;;;;;;9.10;7.67;;;;;;;18.93;81.99;96523.11;1810700;79;21241;-79
2021/07/12 04:16:53;;;;;;;8.15;7.35;;;;;;;18.98;82.18;96512.68;1772772;79;21263;-78
2021/07/12 04:19:19;;;;;;;7.17;6.53;;;;;;;19.02;82.08;96504.59;1795463;79;20959;-79
2021/07/12 04:21:44;;;;;;;7.78;7.08;;;;;;;19.03;82.44;96507.51;1793019;79;20947;-79
2021/07/12 04:24:10;;;;;;;7.15;6.45;;;;;;;19.04;82.34;96505.19;1803753;79;20918;-79
2021/07/12 04:26:36;;;;;;;6.60;5.95;;;;;;;19.08;81.94;96502.89;1810146;79;21252;-79
2021/07/12 04:29:01;;;;;;;6.87;6.15;;;;;;;19.19;82.21;96508.63;1812328;79;20934;-79
2021/07/12 04:31:27;;;;;;;6.58;5.97;;;;;;;19.25;82.16;96508.23;1810594;79;20888;-79
2021/07/12 04:33:53;;;;;;;7.87;6.67;;;;;;;19.31;81.88;96509.92;1807834;79;20888;-79
2021/07/12 04:36:18;;;;;;;7.67;6.87;;;;;;;19.41;82.07;96503.55;1802545;79;20948;-79
2021/07/12 04:38:44;;;;;;;7.53;6.85;;;;;;;19.49;82.04;96507.91;1798815;79;20880;-79
2021/07/12 04:41:10;;;;;;;7.00;6.05;;;;;;;19.58;82.30;96508.38;1797074;79;21236;-79
2021/07/12 04:43:36;;;;;;;7.30;5.90;;;;;;;19.69;82.46;96510.70;1800876;79;20951;-80
2021/07/12 04:46:02;;;;;;;8.78;6.37;;;;;;;19.82;82.20;96508.27;1802310;79;20908;-79
2021/07/12 04:48:28;;;;;;;6.50;5.90;;;;;;;19.94;80.76;96509.02;1822300;79;20911;-79
2021/07/12 04:50:54;;;;;;;6.97;6.37;;;;;;;20.01;80.55;96510.48;1806170;79;20974;-79
2021/07/12 04:53:20;;;;;;;7.15;6.53;;;;;;;20.10;80.35;96502.97;1799971;79;20883;-79
2021/07/12 04:55:45;;;;;;;7.08;6.08;;;;;;;20.18;80.75;96499.15;1813436;78;20910;-79
2021/07/12 04:58:11;;;;;;;7.45;6.75;;;;;;;20.21;79.77;96496.83;1771769;80;21228;-80
2021/07/12 05:00:37;;;;;;;6.45;5.85;;;;;;;20.24;80.06;96489.75;1768575;79;20951;-79
2021/07/12 05:03:06;;;;;;;7.17;6.45;;;;;;;20.32;80.39;96491.97;1774572;79;20965;-79
2021/07/12 05:05:32;;;;;;;7.65;6.95;;;;;;;20.40;80.34;96488.14;1772863;79;21272;-79
2021/07/12 05:07:58;;;;;;;6.55;6.00;;;;;;;20.44;79.72;96487.97;1773978;79;20918;-79
2021/07/12 05:10:23;;;;;;;7.42;6.67;;;;;;;20.46;79.33;96485.08;1773034;79;20977;-79
2021/07/12 05:12:49;;;;;;;7.58;6.85;;;;;;;20.49;79.22;96495.95;1773001;79;20965;-79
2021/07/12 05:15:15;;;;;;;7.22;6.58;;;;;;;20.52;79.36;96496.02;1773415;79;21323;-79
2021/07/12 05:17:41;;;;;;;8.20;7.35;;;;;;;20.54;79.36;96496.05;1777187;79;20974;-79
2021/07/12 05:20:08;;;;;;;7.45;6.78;;;;;;;20.57;79.04;96492.91;1768336;79;20943;-79
2021/07/12 05:22:34;;;;;;;6.87;5.72;;;;;;;20.60;79.27;96485.83;1773892;79;20907;-79
2021/07/12 05:25:01;;;;;;;7.83;7.12;;;;;;;20.67;79.71;96487.00;1752358;80;20910;-79
2021/07/12 05:27:27;;;;;;;8.58;7.78;;;;;;;20.67;79.33;96486.47;1767620;80;21214;-80
2021/07/12 05:29:52;;;;;;;9.30;8.40;;;;;;;20.68;79.43;96485.95;1809968;79;20974;-80
2021/07/12 05:32:18;;;;;;;7.58;6.92;;;;;;;20.68;79.23;96485.95;1798073;79;20894;-80
2021/07/12 05:34:44;;;;;;;8.28;7.47;;;;;;;20.65;79.19;96482.45;1778748;80;21012;-80
2021/07/12 05:37:10;;;;;;;8.25;7.40;;;;;;;20.65;79.01;96480.61;1778674;79;21266;-80
2021/07/12 05:39:35;;;;;;;9.13;7.87;;;;;;;20.74;79.33;96473.61;1774253;79;20859;-80
2021/07/12 05:42:01;;;;;;;9.88;8.75;;;;;;;20.78;78.98;96472.07;1785953;79;20896;-80
2021/07/12 05:44:27;;;;;;;9.15;8.25;;;;;;;20.83;78.75;96480.09;1793315;79;21285;-80
2021/07/12 05:46:52;;;;;;;8.75;7.90;;;;;;;20.82;78.95;96490.34;1795577;79;20913;-79
2021/07/12 05:49:18;;;;;;;8.58;7.75;;;;;;;20.84;79.06;96495.69;1773782;79;20930;-80
2021/07/12 05:51:47;;;;;;;9.85;8.88;;;;;;;20.83;78.93;96491.45;1775917;79;20994;-80
2021/07/12 05:54:11;;;;;;;10.53;9.63;;;;;;;20.90;79.03;96493.90;1774593;79;20916;-80
2021/07/12 05:56:37;;;;;;;10.65;9.65;;;;;;;20.95;79.32;96495.28;1774941;79;20910;-79
2021/07/12 05:59:03;;;;;;;9.53;8.65;;;;;;;20.98;79.05;96491.62;1744362;81;21268;-80
2021/07/12 06:01:29;;;;;;;9.83;8.83;;;;;;;21.03;78.92;96491.43;1761878;80;20931;-79
2021/07/12 06:03:55;;;;;;;8.95;8.15;;;;;;;21.12;79.16;96493.38;1762859;80;20927;-79
2021/07/12 06:06:20;;;;;;;8.75;7.95;;;;;;;21.19;78.50;96490.58;1751881;80;20952;-79
2021/07/12 06:08:46;;;;;;;8.40;7.60;;;;;;;21.27;78.76;96487.52;1762520;80;21233;-80
2021/07/12 06:11:12;;;;;;;7.92;7.22;;;;;;;21.37;78.34;96487.64;1772842;80;21235;-80
2021/07/12 06:13:38;;;;;;;7.20;6.50;;;;;;;21.42;78.32;96489.02;1762523;80;20990;-80
2021/07/12 06:16:05;;;;;;;6.75;6.25;;;;;;;21.43;77.28;96487.17;1754585;80;21236;-79
2021/07/12 06:18:30;;;;;;;7.05;6.35;;;;;;;21.38;77.07;96483.16;1762936;81;21009;-80
2021/07/12 06:20:56;;;;;;;7.00;6.37;;;;;;;21.37;77.12;96482.88;1775405;80;20971;-80
2021/07/12 06:23:22;;;;;;;6.70;6.10;;;;;;;21.35;76.85;96483.13;1758601;80;21306;-80
2021/07/12 06:25:47;;;;;;;7.42;6.70;;;;;;;21.30;75.89;96481.73;1759753;80;20923;-80
2021/07/12 06:28:13;;;;;;;6.75;6.12;;;;;;;21.29;76.77;96492.03;1771665;80;20914;-80
2021/07/12 06:30:39;;;;;;;7.25;6.58;;;;;;;21.32;77.32;96487.59;1768748;80;20931;-80
2021/07/12 06:33:05;;;;;;;8.65;7.75;;;;;;;21.27;76.14;96475.10;1790989;79;21221;-80
2021/07/12 06:35:31;;;;;;;8.30;7.15;;;;;;;21.24;76.70;96474.77;1765780;80;20962;-80
2021/07/12 06:37:56;;;;;;;7.45;6.75;;;;;;;21.27;76.74;96474.30;1750492;81;20945;-79
2021/07/12 06:40:22;;;;;;;6.97;6.37;;;;;;;21.29;76.49;96474.85;1785429;79;20884;-79
2021/07/12 06:42:49;;;;;;;7.42;6.70;;;;;;;21.24;76.82;96476.09;1796503;79;21159;-79
2021/07/12 06:45:15;;;;;;;8.65;7.75;;;;;;;21.21;76.86;96481.88;1779401;79;20973;-79
2021/07/12 06:47:41;;;;;;;8.98;7.22;;;;;;;21.18;76.58;96491.62;1772822;79;20913;-80
2021/07/12 06:50:07;;;;;;;8.55;7.17;;;;;;;21.18;76.66;96498.23;1775410;79;21179;-80
2021/07/12 06:52:33;;;;;;;14.47;8.20;;;;;;;21.16;76.68;96509.57;1756680;79;20901;-80
2021/07/12 06:54:59;;;;;;;7.83;6.97;;;;;;;21.11;76.24;96512.13;1770801;79;20954;-80
2021/07/12 06:57:25;;;;;;;7.33;6.62;;;;;;;21.08;76.15;96519.23;1773465;79;20989;-80
2021/07/12 06:59:51;;;;;;;7.30;6.60;;;;;;;21.04;76.13;96525.52;1773617;80;20935;-80
2021/07/12 07:02:17;;;;;;;8.45;7.50;;;;;;;21.02;76.54;96525.50;1772606;79;21297;-80
2021/07/12 07:04:43;;;;;;;9.18;7.00;;;;;;;20.95;76.60;96523.81;1799653;79;20905;-80
2021/07/12 07:07:10;;;;;;;6.85;6.22;;;;;;;20.92;76.88;96521.66;1777856;79;20921;-80
2021/07/12 07:09:35;;;;;;;7.62;6.90;;;;;;;20.90;77.19;96524.27;1781897;79;21270;-81
2021/07/12 07:12:01;;;;;;;6.40;5.80;;;;;;;20.91;77.80;96524.03;1749774;81;20937;-80
2021/07/12 07:14:28;;;;;;;6.97;6.15;;;;;;;20.89;78.00;96519.52;1794199;79;21032;-81
2021/07/12 07:16:53;;;;;;;7.10;6.37;;;;;;;20.85;78.13;96518.41;1773133;79;20947;-80
2021/07/12 07:19:19;;;;;;;5.92;5.33;;;;;;;20.83;78.37;96510.45;1780119;79;20880;-79
2021/07/12 07:21:51;;;;;;;7.22;6.45;;;;;;;20.80;78.80;96513.55;1783704;79;21220;-79
2021/07/12 07:24:12;;;;;;;8.70;7.35;;;;;;;20.76;78.84;96505.33;1770748;79;21014;-79
2021/07/12 07:26:38;;;;;;;8.15;7.20;;;;;;;20.77;78.80;96506.92;1779202;79;20935;-79
2021/07/12 07:29:04;;;;;;;8.48;7.40;;;;;;;20.76;78.92;96505.33;1777228;79;20912;-79
2021/07/12 07:31:30;;;;;;;7.65;6.30;;;;;;;20.71;78.92;96506.58;1775265;79;21036;-78
2021/07/12 07:33:55;;;;;;;8.48;6.10;;;;;;;20.63;79.08;96518.86;1758749;79;21441;-79
2021/07/12 07:36:21;;;;;;;6.72;6.05;;;;;;;20.53;79.27;96522.69;1771293;79;20945;-78
2021/07/12 07:38:47;;;;;;;6.47;5.60;;;;;;;20.51;79.58;96521.61;1769763;79;20949;-79
2021/07/12 07:41:13;;;;;;;5.92;5.28;;;;;;;20.49;79.61;96517.06;1769668;79;20889;-79
2021/07/12 07:43:38;;;;;;;5.90;5.17;;;;;;;20.45;79.66;96511.20;1742431;79;21284;-79
2021/07/12 07:46:05;;;;;;;6.10;5.00;;;;;;;20.32;79.41;96492.48;1723803;81;20932;-79
2021/07/12 07:48:30;;;;;;;7.37;3.77;;;;;;;20.19;79.49;96491.52;1733123;81;20954;-79
2021/07/12 07:50:56;;;;;;;3.77;3.02;;;;;;;20.08;79.44;96480.78;1719397;82;20928;-78
2021/07/12 07:53:22;;;;;;;6.25;3.25;;;;;;;19.95;79.14;96478.45;1708278;82;20941;-79
2021/07/12 07:55:48;;;;;;;4.58;3.17;;;;;;;19.85;79.17;96481.42;1713464;81;21069;-79
2021/07/12 07:58:13;;;;;;;4.37;3.35;;;;;;;19.77;79.17;96485.26;1737067;81;20974;-78
2021/07/12 08:00:39;;;;;;;3.85;3.20;;;;;;;19.73;79.46;96484.14;1730866;81;21292;-79
2021/07/12 08:03:05;;;;;;;6.00;3.72;;;;;;;19.72;79.75;96486.50;1747578;81;20972;-78
2021/07/12 08:05:32;;;;;;;5.28;3.45;;;;;;;19.68;79.60;96489.30;1704497;82;21007;-79
2021/07/12 08:07:58;;;;;;;6.35;3.15;;;;;;;19.64;79.95;96484.23;1697940;82;21000;-80
2021/07/12 08:10:24;;;;;;;6.90;3.80;;;;;;;19.49;80.19;96486.83;1728511;81;20968;-80
2021/07/12 08:12:50;;;;;;;4.45;3.30;;;;;;;19.49;80.19;96486.83;1707351;82;21333;-80
2021/07/12 08:15:17;;;;;;;5.03;3.83;;;;;;;19.49;79.88;96501.32;1705601;82;21031;-80
2021/07/12 08:17:44;;;;;;;5.03;3.40;;;;;;;19.39;79.79;96502.98;1735013;81;21087;-79
2021/07/12 08:20:12;;;;;;;4.55;3.72;;;;;;;19.40;80.40;96509.85;1725019;81;20992;-78
2021/07/12 08:22:38;;;;;;;4.08;3.67;;;;;;;19.43;80.64;96514.12;1696029;82;20965;-78
2021/07/12 08:25:07;;;;;;;5.12;3.65;;;;;;;19.47;80.56;96511.82;1716669;81;20974;-80
2021/07/12 08:27:33;;;;;;;3.40;3.05;;;;;;;19.50;80.45;96525.32;1730964;81;20915;-80
2021/07/12 08:29:58;;;;;;;4.53;3.70;;;;;;;19.55;80.85;96524.67;1734841;81;20946;-80
2021/07/12 08:32:24;;;;;;;5.60;4.12;;;;;;;19.58;81.00;96537.38;1726207;82;20939;-80
2021/07/12 08:34:50;;;;;;;4.75;4.15;;;;;;;19.63;81.14;96534.83;1746635;81;21404;-80
2021/07/12 08:37:16;;;;;;;5.45;4.95;;;;;;;19.66;81.08;96544.09;1734158;81;21292;-80
2021/07/12 08:39:42;;;;;;;4.00;3.60;;;;;;;19.70;81.22;96551.32;1759066;81;20924;-80
2021/07/12 08:42:10;;;;;;;4.53;3.67;;;;;;;19.71;81.12;96557.39;1748174;81;20940;-79
2021/07/12 08:44:36;;;;;;;4.95;3.47;;;;;;;19.73;81.22;96550.05;1763445;79;21297;-80
2021/07/12 08:47:02;;;;;;;5.75;4.00;;;;;;;19.74;81.37;96543.22;1773700;79;21023;-79
2021/07/12 08:49:28;;;;;;;4.30;3.90;;;;;;;19.71;81.40;96538.42;1781719;79;20961;-79
2021/07/12 08:51:54;;;;;;;4.30;3.90;;;;;;;19.71;81.46;96537.62;1797719;79;20949;-80
2021/07/12 08:54:20;;;;;;;5.62;4.05;;;;;;;19.76;81.73;96531.91;1775995;79;21240;-79
2021/07/12 08:56:45;;;;;;;5.33;3.60;;;;;;;19.83;81.55;96531.76;1757309;79;20917;-79
2021/07/12 08:59:31;;;;;;;4.62;3.67;;;;;;;19.89;81.55;96532.67;1745929;79;20950;-79
2021/07/12 09:02:15;;;;;;;4.15;3.80;;;;;;;19.91;81.29;96534.03;1756023;79;20922;-78
2021/07/12 09:04:52;;;;;;;4.58;4.15;;;;;;;19.95;81.33;96545.70;1755166;79;20937;-78
2021/07/12 09:07:27;;;;;;;4.45;4.03;;;;;;;20.03;81.65;96548.48;1773598;79;20891;-79
2021/07/12 09:10:05;;;;;;;4.28;3.87;;;;;;;20.11;81.57;96546.77;1757896;79;21967;-80
2021/07/12 09:12:42;;;;;;;4.17;3.77;;;;;;;20.21;81.69;96542.20;1756201;79;20925;-80
2021/07/12 09:15:21;;;;;;;3.98;3.62;;;;;;;20.22;81.38;96536.68;1778273;79;20936;-80
2021/07/12 09:17:49;;;;;;;3.85;3.50;;;;;;;20.26;81.53;96534.36;1755587;79;20980;-79
2021/07/12 09:20:29;;;;;;;4.20;3.80;;;;;;;20.30;81.12;96534.95;1742913;79;20910;-79
2021/07/12 09:22:55;;;;;;;5.08;4.03;;;;;;;20.32;81.03;96534.70;1764041;79;20953;-79
2021/07/12 09:25:21;;;;;;;5.25;3.85;;;;;;;20.37;81.21;96536.93;1730714;79;20870;-79
2021/07/12 09:27:51;;;;;;;5.37;3.92;;;;;;;20.45;81.12;96539.70;1760534;79;20929;-80
2021/07/12 09:30:16;;;;;;;4.10;3.70;;;;;;;20.57;81.33;96536.99;1748889;80;21008;-79
2021/07/12 09:32:45;;;;;;;4.10;3.70;;;;;;;20.65;81.13;96533.41;1763850;79;21005;-79
2021/07/12 09:35:19;;;;;;;5.30;4.83;;;;;;;20.77;81.30;96531.21;1758201;79;21020;-79
2021/07/12 09:37:50;;;;;;;6.90;6.15;;;;;;;20.89;81.13;96531.92;1767190;79;21218;-79
2021/07/12 09:40:17;;;;;;;9.63;8.43;;;;;;;20.93;81.12;96532.50;1778512;79;20967;-79
2021/07/12 09:42:48;;;;;;;10.32;9.28;;;;;;;20.98;81.09;96536.52;1754812;79;21242;-80
2021/07/12 09:45:17;;;;;;;7.92;7.12;;;;;;;21.11;81.22;96527.45;1753940;79;20949;-79
2021/07/12 09:47:45;;;;;;;5.53;4.22;;;;;;;21.26;80.87;96529.53;1773308;79;21251;-79
2021/07/12 09:50:24;;;;;;;7.20;6.50;;;;;;;21.33;80.98;96524.87;1782173;79;21377;-79
2021/07/12 09:53:00;;;;;;;7.90;7.12;;;;;;;21.34;80.50;96519.86;1752043;80;20939;-80
2021/07/12 09:55:32;;;;;;;7.03;6.33;;;;;;;21.40;80.31;96515.42;1773165;79;20959;-79
2021/07/12 09:58:15;;;;;;;7.75;6.95;;;;;;;21.45;80.06;96518.91;1756950;80;20911;-79
2021/07/12 10:00:53;;;;;;;6.90;6.30;;;;;;;21.46;79.77;96522.36;1785997;79;20899;-79
2021/07/12 10:03:21;;;;;;;6.22;5.62;;;;;;;21.45;80.18;96518.91;1779782;79;20908;-79
2021/07/12 10:05:48;;;;;;;4.58;3.98;;;;;;;21.41;79.65;96515.70;1791216;79;20974;-80
2021/07/12 10:08:13;;;;;;;4.58;4.17;;;;;;;21.30;77.41;96513.97;1774228;79;20926;-80
2021/07/12 10:10:39;;;;;;;5.97;4.53;;;;;;;21.18;77.66;96515.41;1777159;79;21268;-80
2021/07/12 10:13:05;;;;;;;6.72;6.03;;;;;;;21.06;78.00;96506.27;1783319;79;20972;-80
2021/07/12 10:15:31;;;;;;;4.42;4.03;;;;;;;21.10;79.03;96507.89;1771894;79;21011;-80
2021/07/12 10:17:57;;;;;;;5.62;4.47;;;;;;;21.11;78.10;96511.60;1774973;79;20912;-80
2021/07/12 10:20:23;;;;;;;4.50;4.10;;;;;;;21.24;79.95;96515.23;1767197;79;21319;-80
2021/07/12 10:22:49;;;;;;;4.78;4.35;;;;;;;21.34;79.74;96520.38;1775242;79;20919;-80
2021/07/12 10:25:17;;;;;;;4.30;3.90;;;;;;;21.38;79.12;96517.00;1783417;79;20978;-80
2021/07/12 10:27:58;;;;;;;5.62;5.00;;;;;;;21.32;78.41;96517.19;1776660;79;20990;-80
2021/07/12 10:30:45;;;;;;;4.25;3.85;;;;;;;21.25;79.10;96516.84;1766315;79;21265;-80
2021/07/12 10:33:13;;;;;;;5.15;4.03;;;;;;;21.26;79.30;96518.43;1792554;79;21011;-80
2021/07/12 10:35:51;;;;;;;4.00;3.27;;;;;;;21.25;79.19;96522.64;1768035;79;21293;-79
2021/07/12 10:38:38;;;;;;;4.33;3.87;;;;;;;21.21;79.36;96520.98;1800700;79;20945;-80
2021/07/12 10:41:25;;;;;;;4.12;3.75;;;;;;;21.24;79.13;96521.84;1783153;79;20962;-80
2021/07/12 10:43:58;;;;;;;4.47;4.08;;;;;;;21.19;77.24;96510.39;1790917;79;21368;-80
2021/07/12 10:46:31;;;;;;;4.37;3.98;;;;;;;21.17;77.46;96505.36;1772803;79;21321;-80
2021/07/12 10:49:05;;;;;;;4.65;4.25;;;;;;;21.21;78.57;96500.38;1791949;79;21182;-80
2021/07/12 10:51:37;;;;;;;3.80;3.47;;;;;;;21.31;78.28;96487.81;1754202;80;20900;-80
2021/07/12 10:54:10;;;;;;;4.72;4.10;;;;;;;21.27;77.95;96490.95;1786328;79;20885;-80
2021/07/12 10:56:57;;;;;;;4.70;4.30;;;;;;;21.24;78.80;96482.20;1749553;80;20978;-80
2021/07/12 10:59:40;;;;;;;4.15;3.67;;;;;;;21.33;79.07;96475.18;1768949;79;21018;-80
2021/07/12 11:02:21;;;;;;;4.28;3.87;;;;;;;21.45;76.51;96480.59;1787107;79;21015;-80
2021/07/12 11:04:52;;;;;;;3.62;3.33;;;;;;;21.61;78.21;96472.81;1782875;79;20919;-80
2021/07/12 11:07:39;;;;;;;4.47;4.08;;;;;;;21.76;76.56;96472.97;1745990;79;20893;-80
2021/07/12 11:10:26;;;;;;;4.10;3.70;;;;;;;21.90;76.62;96460.94;1747407;79;21028;-80
2021/07/12 11:13:00;;;;;;;4.42;4.03;;;;;;;22.01;77.26;96453.89;1763911;79;20950;-80
2021/07/12 11:15:36;;;;;;;4.97;4.58;;;;;;;22.21;76.35;96451.44;1741851;80;20982;-80
2021/07/12 11:18:10;;;;;;;5.12;4.62;;;;;;;22.52;77.21;96459.06;1779788;79;22034;-80
2021/07/12 11:20:47;;;;;;;4.40;4.00;;;;;;;22.74;76.85;96450.97;1782248;79;20975;-80
2021/07/12 11:23:49;;;;;;;3.85;3.20;;;;;;;22.70;74.41;96444.07;1789784;79;20961;-80
2021/07/12 11:26:27;;;;;;;4.10;3.80;;;;;;;22.61;72.74;96445.59;1782864;79;21026;-80
2021/07/12 11:28:57;;;;;;;3.70;3.10;;;;;;;22.75;74.38;96443.30;1792749;79;20969;-80
2021/07/12 11:31:55;;;;;;;3.42;3.12;;;;;;;22.93;73.61;96437.58;1773667;79;20889;-80
2021/07/12 11:34:32;;;;;;;3.30;3.00;;;;;;;23.11;72.38;96439.00;1761327;79;20946;-80
2021/07/12 11:37:02;;;;;;;3.42;3.12;;;;;;;23.26;69.82;96428.95;1790553;79;20931;-79
2021/07/12 11:39:34;;;;;;;4.05;3.55;;;;;;;23.38;71.46;96424.75;1787129;79;20935;-79
2021/07/12 11:42:21;;;;;;;3.45;2.90;;;;;;;23.47;71.39;96423.20;1780786;79;20954;-79
2021/07/12 11:44:56;;;;;;;3.67;3.37;;;;;;;23.30;69.75;96430.84;1757884;79;20989;-80
2021/07/12 11:47:35;;;;;;;3.08;2.75;;;;;;;23.38;72.08;96426.08;1766241;79;20946;-80